Time;durP1;ratioP1;P1;durP2;ratioP2;P2;SDS_P1;SDS_P2;PMS_P1;PMS_P2;Temp;Humidity;BMP_temperature;BMP_pressure;BME280_temperature;BME280_humidity;BME280_pressure;Samples;Min_cycle;Max_cycle;Signal;HPM_P1;HPM_P2
2020/12/08 00:02:05;;;;;;;6.05;5.22;;;1.70;92.00;;;;;;5017375;28;20108;-79
2020/12/08 00:04:31;;;;;;;6.50;5.80;;;0.70;91.70;;;;;;4996787;28;20029;-79
2020/12/08 00:06:57;;;;;;;8.23;5.45;;;1.70;91.90;;;;;;4996624;28;20047;-79
2020/12/08 00:09:23;;;;;;;6.65;4.93;;;;;;;;;;5012775;28;20044;-79
2020/12/08 00:11:48;;;;;;;5.57;4.60;;;1.30;96.40;;;;;;5012887;28;20053;-79
2020/12/08 00:14:14;;;;;;;5.18;4.57;;;1.40;91.40;;;;;;5002208;28;20075;-79
2020/12/08 00:16:40;;;;;;;8.15;4.50;;;1.50;91.50;;;;;;5032642;28;20499;-79
2020/12/08 00:19:06;;;;;;;6.13;4.95;;;2.30;91.60;;;;;;5032552;28;20070;-79
2020/12/08 00:21:32;;;;;;;5.20;4.40;;;;;;;;;;5032683;28;20028;-79
2020/12/08 00:23:58;;;;;;;5.97;4.85;;;0.90;94.70;;;;;;5033621;28;20022;-78
2020/12/08 00:26:23;;;;;;;5.15;4.60;;;1.10;91.60;;;;;;5015896;28;20091;-79
2020/12/08 00:28:49;;;;;;;5.75;4.88;;;1.30;91.90;;;;;;5032383;28;20045;-79
2020/12/08 00:31:14;;;;;;;6.13;5.25;;;2.80;92.20;;;;;;5015759;28;20021;-79
2020/12/08 00:33:40;;;;;;;6.97;5.07;;;;;;;;;;5032128;28;20041;-79
2020/12/08 00:36:06;;;;;;;5.72;5.13;;;1.10;94.90;;;;;;5032083;28;20013;-79
2020/12/08 00:38:32;;;;;;;6.07;4.75;;;2.60;92.20;;;;;;5015940;28;20048;-79
2020/12/08 00:40:57;;;;;;;5.63;4.90;;;2.40;92.40;;;;;;5032435;28;20367;-79
2020/12/08 00:43:23;;;;;;;5.63;4.80;;;1.40;92.20;;;;;;5033543;28;20028;-79
2020/12/08 00:45:48;;;;;;;5.03;4.45;;;2.80;92.70;;;;;;5031859;28;20025;-79
2020/12/08 00:48:14;;;;;;;6.60;4.88;;;2.10;92.40;;;;;;5015348;28;20036;-79
2020/12/08 00:50:40;;;;;;;5.43;4.93;;;0.70;91.90;;;;;;5032031;28;20025;-79
2020/12/08 00:53:05;;;;;;;5.55;4.85;;;2.10;92.30;;;;;;5015155;28;20060;-79
2020/12/08 00:55:31;;;;;;;5.00;4.43;;;1.00;99.90;;;;;;5015406;28;20370;-79
2020/12/08 00:57:56;;;;;;;8.00;4.80;;;1.80;92.30;;;;;;5032984;28;20029;-79
2020/12/08 01:00:22;;;;;;;5.63;5.03;;;1.70;92.50;;;;;;5033256;28;20418;-79
2020/12/08 01:02:48;;;;;;;5.35;4.57;;;2.20;92.60;;;;;;5032893;28;20033;-79
2020/12/08 01:05:13;;;;;;;4.75;4.22;;;0.80;92.20;;;;;;5031690;28;20029;-79
2020/12/08 01:07:39;;;;;;;5.18;4.68;;;1.40;99.90;;;;;;5033141;28;20030;-79
2020/12/08 01:10:05;;;;;;;6.38;5.13;;;1.40;92.40;;;;;;5015349;28;20022;-79
2020/12/08 01:12:30;;;;;;;6.50;5.38;;;1.30;92.20;;;;;;5031788;28;20025;-79
2020/12/08 01:14:56;;;;;;;5.32;4.78;;;2.40;92.40;;;;;;5031619;28;20025;-79
2020/12/08 01:17:21;;;;;;;5.43;4.68;;;1.20;92.10;;;;;;5031488;28;20025;-79
2020/12/08 01:19:47;;;;;;;6.53;4.60;;;1.00;99.90;;;;;;5015020;28;20124;-79
2020/12/08 01:22:13;;;;;;;5.55;4.97;;;0.80;92.00;;;;;;5031911;28;20033;-79
2020/12/08 01:24:38;;;;;;;5.68;5.07;;;1.60;92.30;;;;;;5032389;28;20029;-79
2020/12/08 01:27:04;;;;;;;6.13;5.28;;;2.70;92.80;;;;;;5014667;28;20053;-79
2020/12/08 01:29:29;;;;;;;5.80;4.80;;;0.80;92.40;;;;;;5031412;28;20025;-79
2020/12/08 01:31:55;;;;;;;5.00;4.50;;;1.10;99.90;;;;;;5031221;28;20075;-79
2020/12/08 01:34:20;;;;;;;5.93;5.10;;;1.10;92.30;;;;;;5032522;28;20018;-79
2020/12/08 01:36:46;;;;;;;6.20;4.78;;;1.80;92.50;;;;;;5015070;28;20091;-79
2020/12/08 01:39:11;;;;;;;5.63;4.32;;;1.50;99.20;;;;;;5014756;28;20021;-79
2020/12/08 01:41:37;;;;;;;8.55;5.03;;;2.70;92.70;;;;;;5031248;28;20402;-79
2020/12/08 01:44:03;;;;;;;5.15;4.65;;;1.20;99.90;;;;;;5014725;28;20047;-79
2020/12/08 01:46:29;;;;;;;5.40;4.90;;;1.10;96.90;;;;;;5029988;28;20038;-79
2020/12/08 01:48:56;;;;;;;6.40;5.47;;;0.90;92.10;;;;;;5014972;28;20070;-80
2020/12/08 01:51:22;;;;;;;8.73;5.40;;;2.70;92.50;;;;;;5014735;28;20179;-79
2020/12/08 01:53:49;;;;;;;5.25;4.75;;;1.60;92.40;;;;;;4997997;28;20112;-79
2020/12/08 01:56:15;;;;;;;6.40;5.30;;;1.20;99.90;;;;;;5011638;28;20058;-80
2020/12/08 01:58:40;;;;;;;6.78;5.38;;;2.80;97.60;;;;;;4995264;28;20022;-79
2020/12/08 02:01:08;;;;;;;6.88;5.22;;;2.50;92.60;;;;;;5011352;28;20033;-79
2020/12/08 02:03:34;;;;;;;6.53;5.28;;;;;;;;;;4995225;28;20127;-79
2020/12/08 02:05:59;;;;;;;5.80;5.20;;;1.10;91.90;;;;;;5011307;28;20065;-79
2020/12/08 02:08:29;;;;;;;6.78;5.55;;;1.40;99.90;;;;;;5011113;28;20100;-80
2020/12/08 02:10:55;;;;;;;6.68;5.90;;;2.40;92.80;;;;;;4994888;28;20470;-79
2020/12/08 02:13:20;;;;;;;7.72;6.32;;;2.50;93.00;;;;;;5000170;28;20064;-79
2020/12/08 02:15:47;;;;;;;6.38;5.55;;;1.10;92.60;;;;;;4994929;28;20073;-79
2020/12/08 02:18:13;;;;;;;7.18;6.07;;;2.60;92.90;;;;;;5011167;28;20476;-79
2020/12/08 02:20:39;;;;;;;6.00;5.22;;;;;;;;;;5011002;28;20452;-79
2020/12/08 02:23:05;;;;;;;6.57;5.50;;;1.20;96.10;;;;;;5011019;28;20463;-79
2020/12/08 02:25:30;;;;;;;7.25;5.25;;;3.10;93.00;;;;;;5011281;28;20037;-79
2020/12/08 02:27:56;;;;;;;7.60;6.80;;;2.60;92.80;;;;;;5010948;28;20108;-79
2020/12/08 02:30:21;;;;;;;10.30;6.40;;;2.40;92.90;;;;;;5011206;28;20069;-80
2020/12/08 02:32:47;;;;;;;7.32;6.45;;;1.20;99.90;;;;;;5011250;28;20034;-79
2020/12/08 02:35:12;;;;;;;6.40;5.65;;;3.00;98.30;;;;;;5010959;28;20080;-79
2020/12/08 02:37:38;;;;;;;7.18;6.38;;;1.10;92.90;;;;;;5012205;28;20030;-79
2020/12/08 02:40:04;;;;;;;6.72;5.95;;;2.80;93.30;;;;;;5010869;28;20458;-80
2020/12/08 02:42:30;;;;;;;6.25;5.30;;;2.70;93.40;;;;;;5011087;28;20026;-79
2020/12/08 02:44:55;;;;;;;6.85;5.70;;;1.00;99.90;;;;;;5010974;28;20371;-80
2020/12/08 02:47:21;;;;;;;6.05;5.45;;;2.20;98.10;;;;;;5010748;28;20057;-79
2020/12/08 02:49:46;;;;;;;8.38;6.22;;;1.20;92.90;;;;;;5010661;28;20034;-79
2020/12/08 02:52:12;;;;;;;6.40;5.53;;;2.60;93.20;;;;;;5010903;28;20072;-79
2020/12/08 02:54:38;;;;;;;6.88;5.80;;;1.50;99.90;;;;;;5010885;28;20033;-79
2020/12/08 02:57:05;;;;;;;7.47;5.55;;;1.40;99.90;;;;;;5010751;28;20033;-79
2020/12/08 02:59:34;;;;;;;7.13;6.03;;;1.60;97.70;;;;;;4997625;28;20482;-79
2020/12/08 03:02:00;;;;;;;6.22;5.30;;;1.30;92.20;;;;;;5014457;28;20407;-79
2020/12/08 03:04:25;;;;;;;6.30;5.60;;;1.40;92.40;;;;;;5014440;28;20079;-79
2020/12/08 03:06:51;;;;;;;6.70;5.75;;;1.90;92.70;;;;;;5014469;28;20100;-79
2020/12/08 03:09:17;;;;;;;6.40;5.75;;;1.40;99.90;;;;;;5014214;28;20053;-80
2020/12/08 03:11:42;;;;;;;5.97;5.38;;;2.70;97.80;;;;;;5015691;28;20026;-79
2020/12/08 03:14:08;;;;;;;5.60;5.00;;;1.20;92.50;;;;;;5013970;28;20088;-79
2020/12/08 03:16:34;;;;;;;7.57;5.90;;;2.00;93.00;;;;;;5014176;28;20092;-79
2020/12/08 03:19:00;;;;;;;6.43;5.53;;;1.10;99.70;;;;;;5013760;28;20456;-80
2020/12/08 03:21:26;;;;;;;7.28;6.05;;;1.20;93.00;;;;;;5014352;28;20076;-80
2020/12/08 03:23:51;;;;;;;6.18;5.13;;;2.70;96.20;;;;;;5015149;28;20018;-77
2020/12/08 03:26:23;;;;;;;6.88;5.65;;;1.20;93.00;;;;;;5014906;28;20033;-79
2020/12/08 03:28:49;;;;;;;5.97;5.38;;;2.20;93.10;;;;;;5013569;28;20044;-79
2020/12/08 03:31:15;;;;;;;6.50;5.80;;;1.30;92.90;;;;;;5013618;28;20108;-79
2020/12/08 03:33:41;;;;;;;7.00;6.30;;;1.80;99.90;;;;;;5013384;28;20022;-79
2020/12/08 03:36:13;;;;;;;6.80;6.10;;;3.00;98.40;;;;;;5013765;28;20095;-79
2020/12/08 03:38:41;;;;;;;6.20;5.47;;;2.10;93.20;;;;;;5013755;28;20040;-79
2020/12/08 03:41:06;;;;;;;7.63;5.00;;;2.90;93.50;;;;;;5013701;28;20113;-79
2020/12/08 03:43:32;;;;;;;5.22;4.72;;;2.60;93.40;;;;;;5013677;28;20535;-79
2020/12/08 03:45:58;;;;;;;5.25;4.60;;;1.30;99.90;;;;;;5014735;28;20028;-80
2020/12/08 03:48:23;;;;;;;5.90;4.80;;;2.80;98.40;;;;;;5013369;28;20034;-80
2020/12/08 03:50:49;;;;;;;6.13;4.85;;;2.70;93.50;;;;;;5013497;28;20029;-79
2020/12/08 03:53:14;;;;;;;6.05;5.20;;;2.80;93.50;;;;;;5013394;28;20037;-79
2020/12/08 03:55:41;;;;;;;6.85;5.13;;;2.10;93.30;;;;;;5013378;28;20076;-80
2020/12/08 03:58:07;;;;;;;5.72;4.80;;;1.10;99.90;;;;;;5013181;28;20104;-79
2020/12/08 04:00:32;;;;;;;5.85;5.05;;;1.30;97.70;;;;;;4996689;28;20115;-79
2020/12/08 04:02:58;;;;;;;5.93;4.95;;;2.00;93.20;;;;;;5012886;28;20025;-79
2020/12/08 04:05:24;;;;;;;7.25;5.45;;;2.50;93.30;;;;;;5013160;28;20075;-79
2020/12/08 04:07:49;;;;;;;5.38;4.80;;;1.10;92.90;;;;;;5014358;28;20021;-79
2020/12/08 04:10:15;;;;;;;7.13;5.38;;;0.90;99.90;;;;;;5012689;28;20527;-79
2020/12/08 04:12:40;;;;;;;6.53;5.45;;;1.80;98.50;;;;;;5014252;28;20030;-79
2020/12/08 04:15:06;;;;;;;7.30;5.68;;;1.90;93.40;;;;;;5012724;28;20458;-80
2020/12/08 04:17:31;;;;;;;7.97;6.00;;;0.80;93.10;;;;;;5012712;28;20041;-79
2020/12/08 04:19:57;;;;;;;7.97;5.85;;;1.10;99.90;;;;;;5012808;28;20022;-79
2020/12/08 04:22:23;;;;;;;7.38;5.93;;;;;;;;;;5012981;28;20022;-79
2020/12/08 04:24:49;;;;;;;9.82;7.10;;;1.00;96.80;;;;;;5012723;28;20049;-79
2020/12/08 04:27:14;;;;;;;8.50;6.72;;;3.00;93.70;;;;;;5012477;28;20046;-79
2020/12/08 04:29:40;;;;;;;8.27;6.43;;;1.40;93.20;;;;;;5012528;28;20117;-79
2020/12/08 04:32:05;;;;;;;7.05;5.85;;;1.10;99.90;;;;;;5012347;28;20026;-79
2020/12/08 04:34:32;;;;;;;8.82;7.13;;;;;;;;;;5012435;28;20111;-79
2020/12/08 04:36:59;;;;;;;13.10;9.70;;;1.00;92.70;;;;;;5013774;28;20117;-80
2020/12/08 04:39:25;;;;;;;13.98;10.10;;;2.30;93.40;;;;;;5012466;28;20060;-79
2020/12/08 04:41:54;;;;;;;8.93;6.63;;;2.80;93.60;;;;;;5012499;28;20087;-79
2020/12/08 04:44:20;;;;;;;11.70;8.27;;;1.20;99.90;;;;;;5013531;28;20519;-79
2020/12/08 04:46:47;;;;;;;22.75;13.38;;;2.50;93.40;;;;;;5012093;28;20022;-79
2020/12/08 04:49:13;;;;;;;12.48;8.05;;;1.30;98.00;;;;;;4996334;28;20388;-79
2020/12/08 04:51:39;;;;;;;7.45;6.53;;;2.50;93.50;;;;;;4996173;28;20029;-79
2020/12/08 04:54:05;;;;;;;8.43;6.72;;;2.50;93.50;;;;;;4995847;28;20065;-79
2020/12/08 04:56:31;;;;;;;7.90;5.93;;;0.90;99.90;;;;;;5012098;28;20022;-79
2020/12/08 04:58:56;;;;;;;7.90;5.88;;;2.50;93.40;;;;;;5013709;28;20075;-80
2020/12/08 05:01:25;;;;;;;10.15;6.45;;;3.10;93.50;;;;;;5012064;28;20025;-79
2020/12/08 05:04:00;;;;;;;7.70;6.00;;;1.80;93.20;;;;;;5011936;28;20461;-79
2020/12/08 05:06:26;;;;;;;7.30;6.35;;;1.10;92.90;;;;;;5012116;28;20025;-79
2020/12/08 05:09:00;;;;;;;9.38;7.78;;;1.50;99.90;;;;;;5011870;28;20026;-79
2020/12/08 05:11:28;;;;;;;8.80;6.82;;;2.50;93.20;;;;;;5012903;28;20026;-79
2020/12/08 05:14:01;;;;;;;9.65;7.47;;;1.30;92.90;;;;;;5011671;28;20025;-77
2020/12/08 05:16:27;;;;;;;9.43;7.88;;;1.10;92.80;;;;;;5020623;28;20474;-78
2020/12/08 05:18:52;;;;;;;10.10;7.85;;;1.20;93.00;;;;;;5031943;28;20104;-78
2020/12/08 05:21:18;;;;;;;10.88;8.15;;;;;;;;;;5014089;28;20023;-78
2020/12/08 05:23:47;;;;;;;9.00;7.22;;;1.20;96.40;;;;;;5031375;28;20032;-78
2020/12/08 05:26:14;;;;;;;20.75;13.80;;;2.60;93.50;;;;;;5014854;28;20029;-77
2020/12/08 05:28:40;;;;;;;26.55;21.65;;;1.00;92.90;;;;;;5014674;28;20043;-77
2020/12/08 05:31:06;;;;;;;14.75;10.90;;;1.00;92.80;;;;;;5031326;28;20104;-78
2020/12/08 05:33:32;;;;;;;8.27;7.05;;;0.90;99.90;;;;;;5031306;28;20120;-77
2020/12/08 05:35:58;;;;;;;9.75;7.45;;;2.60;98.50;;;;;;5015284;28;20025;-77
2020/12/08 05:38:42;;;;;;;11.13;7.45;;;1.30;93.30;;;;;;5031266;28;20021;-78
2020/12/08 05:41:08;;;;;;;10.15;7.57;;;2.50;93.80;;;;;;5015155;28;20518;-77
2020/12/08 05:43:41;;;;;;;11.18;7.45;;;0.90;93.50;;;;;;5031430;28;20037;-78
2020/12/08 05:46:07;;;;;;;9.95;7.25;;;0.70;99.10;;;;;;5031120;28;20371;-77
2020/12/08 05:48:33;;;;;;;9.13;6.72;;;0.90;93.40;;;;;;5031476;28;20021;-77
2020/12/08 05:51:02;;;;;;;8.07;6.30;;;0.70;93.20;;;;;;5014965;28;20033;-80
2020/12/08 05:53:28;;;;;;;9.35;7.03;;;1.40;93.40;;;;;;5031580;28;20029;-77
2020/12/08 05:56:04;;;;;;;7.45;6.43;;;1.20;93.30;;;;;;5014761;28;20025;-77
2020/12/08 05:58:30;;;;;;;7.80;6.32;;;;;;;;;;5031418;28;20188;-78
2020/12/08 06:01:03;;;;;;;8.93;7.05;;;0.70;96.00;;;;;;5015134;28;20104;-79
2020/12/08 06:03:29;;;;;;;10.00;7.53;;;0.70;92.60;;;;;;5031135;28;20029;-80
2020/12/08 06:06:03;;;;;;;11.15;8.68;;;0.40;92.70;;;;;;5014991;28;20100;-79
2020/12/08 06:08:29;;;;;;;9.35;7.65;;;0.50;93.10;;;;;;5031586;28;20013;-79
2020/12/08 06:10:56;;;;;;;10.48;8.02;;;;;;;;;;5031301;28;20028;-79
2020/12/08 06:13:29;;;;;;;9.57;7.45;;;0.60;96.60;;;;;;5031207;28;20021;-79
2020/12/08 06:15:55;;;;;;;9.05;7.28;;;1.60;93.30;;;;;;5014893;28;20037;-78
2020/12/08 06:18:33;;;;;;;9.57;7.38;;;2.20;93.70;;;;;;5015035;28;20049;-78
2020/12/08 06:21:00;;;;;;;10.38;7.68;;;0.60;93.50;;;;;;5014627;28;20025;-77
2020/12/08 06:23:25;;;;;;;9.98;8.07;;;0.30;99.90;;;;;;5030995;28;20017;-77
2020/12/08 06:26:01;;;;;;;10.85;8.65;;;0.40;93.50;;;;;;5014563;28;20364;-78
2020/12/08 06:28:26;;;;;;;10.27;8.60;;;1.50;99.20;;;;;;5014433;28;20501;-77
2020/12/08 06:31:10;;;;;;;11.30;8.45;;;0.50;93.60;;;;;;5014411;28;20030;-77
2020/12/08 06:33:46;;;;;;;11.57;8.60;;;1.30;93.70;;;;;;5017916;28;20042;-78
2020/12/08 06:36:12;;;;;;;9.38;7.65;;;0.30;93.50;;;;;;5018121;28;20370;-79
2020/12/08 06:38:37;;;;;;;12.40;8.00;;;0.40;99.90;;;;;;5018228;28;20029;-78
2020/12/08 06:41:03;;;;;;;11.20;9.07;;;2.20;99.10;;;;;;5034555;28;20075;-78
2020/12/08 06:43:29;;;;;;;13.18;9.50;;;0.40;93.70;;;;;;5034137;28;20467;-78
2020/12/08 06:46:06;;;;;;;13.13;10.13;;;0.40;93.70;;;;;;5017926;28;20075;-78
2020/12/08 06:48:31;;;;;;;9.38;7.22;;;0.20;99.90;;;;;;5019005;28;20029;-78
2020/12/08 06:50:57;;;;;;;11.57;8.15;;;0.50;93.60;;;;;;5035394;28;20036;-78
2020/12/08 06:53:25;;;;;;;10.35;7.68;;;2.70;94.40;;;;;;5034299;28;20022;-78
2020/12/08 06:55:51;;;;;;;9.73;7.40;;;0.10;94.10;;;;;;5034255;28;20033;-78
2020/12/08 06:58:20;;;;;;;8.18;7.03;;;0.40;93.90;;;;;;5034332;28;20344;-78
2020/12/08 07:00:45;;;;;;;9.73;6.95;;;0.20;99.80;;;;;;5018387;28;20022;-78
2020/12/08 07:03:12;;;;;;;6.70;6.00;;;0.00;93.70;;;;;;5035549;28;20079;-78
2020/12/08 07:05:37;;;;;;;8.63;7.57;;;1.40;94.00;;;;;;5034046;28;20100;-77
2020/12/08 07:08:04;;;;;;;8.32;6.85;;;1.30;94.30;;;;;;5017946;28;20109;-77
2020/12/08 07:10:30;;;;;;;11.15;7.18;;;1.70;94.40;;;;;;5034169;28;20039;-77
2020/12/08 07:12:56;;;;;;;11.13;8.70;;;0.20;99.90;;;;;;5034184;28;20434;-77
2020/12/08 07:15:25;;;;;;;9.55;7.65;;;0.90;94.30;;;;;;5034260;28;20017;-77
2020/12/08 07:17:57;;;;;;;11.30;7.97;;;0.10;94.00;;;;;;5018123;28;20040;-77
2020/12/08 07:20:26;;;;;;;29.42;16.08;;;0.10;94.00;;;;;;5034083;28;20026;-77
2020/12/08 07:22:52;;;;;;;61.20;31.75;;;0.80;94.30;;;;;;5017424;28;20064;-80
2020/12/08 07:25:18;;;;;;;44.28;23.98;;;0.00;99.90;;;;;;5017341;28;20018;-80
2020/12/08 07:27:46;;;;;;;15.15;10.52;;;1.80;93.90;;;;;;5033751;28;20099;-77
2020/12/08 07:30:12;;;;;;;18.42;10.35;;;0.70;93.30;;;;;;5033819;28;20053;-77
2020/12/08 07:32:38;;;;;;;9.25;7.75;;;1.50;93.40;;;;;;5017146;28;20026;-77
2020/12/08 07:35:04;;;;;;;21.52;12.15;;;0.80;93.30;;;;;;5033764;28;20076;-77
2020/12/08 07:37:35;;;;;;;16.48;9.88;;;0.00;99.90;;;;;;5017065;28;20045;-77
2020/12/08 07:40:11;;;;;;;7.57;6.60;;;-0.30;93.30;;;;;;5017484;28;20029;-78
2020/12/08 07:42:37;;;;;;;71.72;28.35;;;1.70;94.10;;;;;;5033769;28;20025;-77
2020/12/08 07:45:06;;;;;;;112.82;46.65;;;1.70;94.10;;;;;;5016347;28;20032;-77
2020/12/08 07:47:32;;;;;;;149.13;65.70;;;-0.20;93.60;;;;;;5034649;28;20033;-77
2020/12/08 07:49:57;;;;;;;175.20;76.93;;;-0.10;99.90;;;;;;5016690;28;20452;-77
2020/12/08 07:52:23;;;;;;;15.82;10.43;;;1.20;94.00;;;;;;5034763;28;20034;-77
2020/12/08 07:54:49;;;;;;;21.00;15.30;;;1.90;94.30;;;;;;5016991;28;20040;-77
2020/12/08 07:57:14;;;;;;;67.47;32.90;;;1.90;94.70;;;;;;5033482;28;20447;-77
2020/12/08 07:59:40;;;;;;;26.70;15.85;;;2.30;93.60;;;;;;5033260;28;20155;-78
2020/12/08 08:02:05;;;;;;;14.52;10.00;;;3.50;99.90;;;;;;5016472;28;20482;-78
2020/12/08 08:04:31;;;;;;;10.80;7.35;;;4.30;92.60;;;;;;5034139;28;20036;-77
2020/12/08 08:06:56;;;;;;;13.40;8.48;;;4.60;78.20;;;;;;5016721;28;20509;-77
2020/12/08 08:09:22;;;;;;;13.43;10.52;;;5.00;74.70;;;;;;5033208;28;20028;-77
2020/12/08 08:11:48;;;;;;;8.95;7.13;;;5.40;73.80;;;;;;5033080;28;20463;-77
2020/12/08 08:14:13;;;;;;;8.38;6.60;;;5.70;72.10;;;;;;5016366;28;20034;-78
2020/12/08 08:16:39;;;;;;;8.38;7.47;;;6.40;79.20;;;;;;5033051;28;20024;-77
2020/12/08 08:19:04;;;;;;;9.48;7.68;;;6.50;68.90;;;;;;5032888;28;20053;-78
2020/12/08 08:21:30;;;;;;;7.35;6.10;;;6.70;67.50;;;;;;5016274;28;20482;-78
2020/12/08 08:24:00;;;;;;;8.48;6.60;;;6.80;90.40;;;;;;5032903;28;20025;-79
2020/12/08 08:26:26;;;;;;;6.18;5.55;;;6.70;66.60;;;;;;5016738;28;20013;-79
2020/12/08 08:28:52;;;;;;;8.70;5.93;;;6.70;66.90;;;;;;5015785;28;20045;-79
2020/12/08 08:31:17;;;;;;;7.28;6.00;;;6.80;66.00;;;;;;5016100;28;20064;-80
2020/12/08 08:33:43;;;;;;;7.85;6.65;;;6.50;66.80;;;;;;5033539;28;20033;-79
2020/12/08 08:36:08;;;;;;;7.07;6.30;;;6.40;67.60;;;;;;5032492;28;20375;-80
2020/12/08 08:38:37;;;;;;;8.80;6.93;;;6.80;67.20;;;;;;5033472;28;20029;-79
2020/12/08 08:41:03;;;;;;;6.45;5.75;;;6.90;66.10;;;;;;5015824;28;20021;-80
2020/12/08 08:43:28;;;;;;;8.23;7.38;;;7.50;66.10;;;;;;5033785;28;20109;-80
2020/12/08 08:46:00;;;;;;;13.35;10.43;;;7.60;64.50;;;;;;5032170;28;20036;-79
2020/12/08 08:48:26;;;;;;;9.90;8.60;;;8.10;86.20;;;;;;5015784;28;20068;-80
2020/12/08 08:50:51;;;;;;;12.45;9.13;;;7.90;63.10;;;;;;5015714;28;20061;-80
2020/12/08 08:53:17;;;;;;;9.27;7.93;;;8.20;63.00;;;;;;5032376;28;20037;-80
2020/12/08 08:55:43;;;;;;;6.72;6.00;;;8.90;60.60;;;;;;5032192;28;20089;-80
2020/12/08 08:58:08;;;;;;;7.35;6.53;;;9.30;59.70;;;;;;5033334;28;20025;-80
2020/12/08 09:00:34;;;;;;;7.45;6.65;;;8.80;82.30;;;;;;4999246;28;20026;-80
2020/12/08 09:03:00;;;;;;;7.45;6.68;;;8.90;60.60;;;;;;5032046;28;20059;-81
2020/12/08 09:05:26;;;;;;;6.78;5.93;;;8.70;61.40;;;;;;5015683;28;20022;-81
2020/12/08 09:07:52;;;;;;;7.28;5.85;;;8.70;61.60;;;;;;4998865;28;20026;-80
2020/12/08 09:10:18;;;;;;;7.57;5.80;;;8.80;61.10;;;;;;5015599;28;20100;-80
2020/12/08 09:12:43;;;;;;;5.95;5.35;;;9.00;60.70;;;;;;4998793;28;20112;-80
2020/12/08 09:15:09;;;;;;;6.18;5.57;;;8.90;66.90;;;;;;5032945;28;20026;-80
2020/12/08 09:17:35;;;;;;;6.18;5.57;;;8.90;60.60;;;;;;5033116;28;20024;-80
2020/12/08 09:20:01;;;;;;;7.18;6.00;;;9.20;60.10;;;;;;4999120;28;20426;-80
2020/12/08 09:22:26;;;;;;;7.68;5.75;;;9.20;59.90;;;;;;5015283;28;20036;-80
2020/12/08 09:24:52;;;;;;;6.30;5.70;;;9.60;59.30;;;;;;5031783;28;20018;-80
2020/12/08 09:27:18;;;;;;;6.22;5.47;;;9.40;64.30;;;;;;5031556;28;20041;-80
2020/12/08 09:29:43;;;;;;;8.27;5.63;;;9.60;59.00;;;;;;5015427;28;20238;-81
2020/12/08 09:32:09;;;;;;;6.20;5.60;;;9.60;58.60;;;;;;5032631;28;20371;-80
2020/12/08 09:34:34;;;;;;;8.15;5.70;;;9.40;59.50;;;;;;5015337;28;20109;-80
2020/12/08 09:37:00;;;;;;;6.70;5.63;;;9.60;59.30;;;;;;5032728;28;20025;-81
2020/12/08 09:39:26;;;;;;;7.25;6.50;;;10.10;64.40;;;;;;5015356;28;20052;-80
2020/12/08 09:41:52;;;;;;;6.70;6.00;;;9.80;58.80;;;;;;5014886;28;20076;-81
2020/12/08 09:44:17;;;;;;;6.13;5.53;;;9.80;58.60;;;;;;5031382;28;20064;-80
2020/12/08 09:46:43;;;;;;;8.23;6.78;;;9.70;59.40;;;;;;5031046;28;20049;-80
2020/12/08 09:49:09;;;;;;;7.57;6.63;;;9.70;59.20;;;;;;5014975;28;20029;-81
2020/12/08 09:51:35;;;;;;;8.23;6.68;;;9.70;65.70;;;;;;5015375;28;20045;-81
2020/12/08 09:54:00;;;;;;;7.75;6.95;;;9.90;58.20;;;;;;5031104;28;20476;-82
2020/12/08 09:56:26;;;;;;;10.13;7.22;;;9.90;58.20;;;;;;5015133;28;20025;-82
2020/12/08 09:58:52;;;;;;;9.63;7.18;;;9.90;59.00;;;;;;5014794;28;20028;-80
2020/12/08 10:01:28;;;;;;;10.30;7.70;;;10.10;59.20;;;;;;5015099;28;20018;-80
2020/12/08 10:03:54;;;;;;;8.20;6.70;;;11.00;61.40;;;;;;5014911;28;20479;-80
2020/12/08 10:06:20;;;;;;;13.65;9.32;;;10.60;57.90;;;;;;5014859;28;20021;-81
2020/12/08 10:08:46;;;;;;;26.88;12.73;;;10.10;58.70;;;;;;5018286;28;20021;-80
2020/12/08 10:11:13;;;;;;;9.48;7.53;;;10.40;58.00;;;;;;5018668;28;20024;-82
2020/12/08 10:13:39;;;;;;;8.82;6.65;;;;;;;;;;5018668;28;20158;-81
2020/12/08 10:16:05;;;;;;;7.57;6.40;;;10.80;58.50;;;;;;5018831;28;20526;-81
2020/12/08 10:18:31;;;;;;;8.00;7.00;;;11.00;56.80;;;;;;5034976;28;20104;-80
2020/12/08 10:20:56;;;;;;;9.63;7.43;;;10.70;57.00;;;;;;5035081;28;20021;-81
2020/12/08 10:23:22;;;;;;;9.48;7.57;;;10.70;57.80;;;;;;5018577;28;20372;-81
2020/12/08 10:25:47;;;;;;;7.53;6.47;;;10.60;57.10;;;;;;5034952;28;20026;-81
2020/12/08 10:28:13;;;;;;;8.57;6.93;;;10.80;63.10;;;;;;5034810;28;20460;-81
2020/12/08 10:30:39;;;;;;;11.68;7.32;;;10.80;57.40;;;;;;5035011;28;20024;-80
2020/12/08 10:33:04;;;;;;;9.30;8.38;;;11.00;57.20;;;;;;5034949;28;20072;-81
2020/12/08 10:35:30;;;;;;;9.23;7.60;;;11.20;56.10;;;;;;5034868;28;20021;-80
2020/12/08 10:37:55;;;;;;;10.52;8.57;;;11.10;56.40;;;;;;5034969;28;20021;-81
2020/12/08 10:40:21;;;;;;;9.27;8.38;;;11.60;61.50;;;;;;5034479;28;20506;-81
2020/12/08 10:42:47;;;;;;;16.48;8.95;;;11.50;56.00;;;;;;5018250;28;20040;-81
2020/12/08 10:45:12;;;;;;;11.30;9.38;;;11.60;55.90;;;;;;5034578;28;20411;-80
2020/12/08 10:47:38;;;;;;;11.15;9.40;;;11.90;55.40;;;;;;5018108;28;20029;-81
2020/12/08 10:50:03;;;;;;;13.90;10.52;;;12.00;54.00;;;;;;5018250;28;20060;-81
2020/12/08 10:52:29;;;;;;;14.20;10.55;;;12.00;61.70;;;;;;5034501;28;20028;-81
2020/12/08 10:54:55;;;;;;;10.95;9.57;;;11.90;55.10;;;;;;5001561;28;20029;-83
2020/12/08 10:57:21;;;;;;;12.23;10.75;;;12.00;53.70;;;;;;5001513;28;20079;-81
2020/12/08 10:59:46;;;;;;;12.60;10.52;;;12.10;54.30;;;;;;5018199;28;20371;-81
2020/12/08 11:02:12;;;;;;;11.60;9.48;;;11.50;56.70;;;;;;5017909;28;20041;-81
2020/12/08 11:04:38;;;;;;;13.15;10.77;;;11.50;56.00;;;;;;5018122;28;20096;-82
2020/12/08 11:07:03;;;;;;;16.35;10.98;;;11.30;57.20;;;;;;5017683;28;20379;-80
2020/12/08 11:09:29;;;;;;;11.13;9.45;;;11.20;58.30;;;;;;5033941;28;20376;-80
2020/12/08 11:11:54;;;;;;;12.35;10.07;;;11.00;57.90;;;;;;5001359;28;20030;-81
2020/12/08 11:14:20;;;;;;;13.95;10.50;;;10.90;58.50;;;;;;5001213;28;20041;-81
2020/12/08 11:16:46;;;;;;;10.77;9.40;;;10.90;59.20;;;;;;5033829;28;20033;-81
2020/12/08 11:19:11;;;;;;;10.73;9.48;;;10.70;59.90;;;;;;5032509;28;20021;-80
2020/12/08 11:21:39;;;;;;;12.27;9.40;;;10.70;60.30;;;;;;5017667;28;20029;-81
2020/12/08 11:24:05;;;;;;;12.05;8.95;;;10.70;60.10;;;;;;5034051;28;20023;-80
2020/12/08 11:26:32;;;;;;;10.45;8.98;;;10.70;60.00;;;;;;5017521;28;20100;-80
2020/12/08 11:28:58;;;;;;;10.60;9.52;;;10.50;60.30;;;;;;5017253;28;20136;-81
2020/12/08 11:31:24;;;;;;;11.25;9.23;;;10.60;61.00;;;;;;5033927;28;20029;-80
2020/12/08 11:33:49;;;;;;;10.93;9.73;;;10.50;60.70;;;;;;5017157;28;20034;-80
2020/12/08 11:36:15;;;;;;;10.65;9.10;;;10.50;60.00;;;;;;5017419;28;20026;-82
2020/12/08 11:38:41;;;;;;;13.20;10.50;;;10.50;60.00;;;;;;5017365;28;20029;-81
2020/12/08 11:41:06;;;;;;;11.88;10.68;;;10.50;60.00;;;;;;5017284;28;20036;-81
2020/12/08 11:43:32;;;;;;;14.43;11.05;;;10.30;60.90;;;;;;5017185;28;20075;-80
2020/12/08 11:45:59;;;;;;;14.27;10.48;;;10.10;62.50;;;;;;5000749;28;20075;-80
2020/12/08 11:48:25;;;;;;;13.18;10.73;;;10.00;62.10;;;;;;5017073;28;20029;-81
2020/12/08 11:50:54;;;;;;;13.88;11.70;;;9.80;62.80;;;;;;5033603;28;20036;-79
2020/12/08 11:53:20;;;;;;;15.88;12.55;;;9.60;63.10;;;;;;5033570;28;20040;-80
2020/12/08 11:55:45;;;;;;;13.90;11.68;;;9.20;65.30;;;;;;5017072;28;20025;-80
2020/12/08 11:58:11;;;;;;;14.15;11.88;;;9.30;64.90;;;;;;5000533;28;20071;-80
2020/12/08 12:00:36;;;;;;;15.02;12.75;;;9.10;91.00;;;;;;5033401;28;20404;-81
2020/12/08 12:03:03;;;;;;;15.60;13.40;;;9.00;66.40;;;;;;5000407;28;20451;-79
2020/12/08 12:05:28;;;;;;;15.77;13.93;;;8.70;66.60;;;;;;5016750;28;20018;-81
2020/12/08 12:07:54;;;;;;;17.13;13.85;;;8.60;67.50;;;;;;5033173;28;20079;-80
2020/12/08 12:10:19;;;;;;;18.63;14.73;;;8.50;68.40;;;;;;5000314;28;20493;-79
2020/12/08 12:12:45;;;;;;;17.88;14.88;;;7.80;91.30;;;;;;5000222;28;20037;-79
2020/12/08 12:15:11;;;;;;;20.02;16.20;;;8.30;68.80;;;;;;5016575;28;20401;-80
2020/12/08 12:17:36;;;;;;;18.45;13.90;;;8.10;69.10;;;;;;5033424;28;20108;-80
2020/12/08 12:20:03;;;;;;;15.93;13.23;;;8.00;68.50;;;;;;5016502;28;20049;-79
2020/12/08 12:22:29;;;;;;;15.52;13.60;;;8.00;69.10;;;;;;5016647;28;20367;-80
2020/12/08 12:24:55;;;;;;;15.85;13.15;;;7.60;92.80;;;;;;5016028;28;20017;-79
2020/12/08 12:27:20;;;;;;;16.77;13.50;;;7.60;77.90;;;;;;5016091;28;20053;-79
2020/12/08 12:29:46;;;;;;;17.73;14.68;;;7.40;71.40;;;;;;5015954;28;20036;-79
2020/12/08 12:32:12;;;;;;;17.80;14.32;;;7.40;71.70;;;;;;5016326;28;20021;-79
2020/12/08 12:34:37;;;;;;;16.75;14.50;;;7.10;72.10;;;;;;5015996;28;20116;-79
2020/12/08 12:37:04;;;;;;;19.85;15.25;;;;;;;;;;5016032;28;20042;-79
2020/12/08 12:39:30;;;;;;;16.63;13.88;;;7.00;80.80;;;;;;5015681;28;20024;-79
2020/12/08 12:41:55;;;;;;;16.67;13.63;;;6.80;73.00;;;;;;5032287;28;20375;-79
2020/12/08 12:44:21;;;;;;;16.83;13.98;;;6.80;73.20;;;;;;5016116;28;20071;-79
2020/12/08 12:46:53;;;;;;;16.15;14.07;;;6.50;74.20;;;;;;5015969;28;20025;-79
2020/12/08 12:49:19;;;;;;;17.98;14.25;;;;;;;;;;4999665;28;20372;-79